createdAt,value
2023-05-04T00:02:34.627Z,1.70
2023-05-04T00:07:36.378Z,1.65
2023-05-04T00:12:38.091Z,2.10
2023-05-04T00:17:39.888Z,2.05
2023-05-04T00:22:41.411Z,1.70
2023-05-04T00:27:42.706Z,1.90
2023-05-04T00:32:44.136Z,1.73
2023-05-04T00:37:46.430Z,2.20
2023-05-04T00:42:47.866Z,1.90
2023-05-04T00:47:49.605Z,1.60
2023-05-04T00:52:52.910Z,1.65
2023-05-04T00:57:54.460Z,2.10
2023-05-04T01:02:56.153Z,1.95
2023-05-04T01:08:13.359Z,2.10
2023-05-04T01:13:16.391Z,2.33
2023-05-04T01:18:18.141Z,2.25
2023-05-04T01:23:19.643Z,2.80
2023-05-04T01:28:30.762Z,2.28
2023-05-04T01:33:32.313Z,2.33
2023-05-04T01:38:33.654Z,2.13
2023-05-04T01:43:34.941Z,2.05
2023-05-04T01:48:36.544Z,2.60
2023-05-04T01:53:37.912Z,2.95
2023-05-04T01:58:39.168Z,2.50
2023-05-04T02:03:42.064Z,2.80
2023-05-04T02:08:43.624Z,2.35
2023-05-04T02:13:44.890Z,2.83
2023-05-04T02:18:46.552Z,2.85
2023-05-04T02:23:47.902Z,2.30
2023-05-04T02:28:49.236Z,2.47
2023-05-04T02:33:51.577Z,3.08
2023-05-04T02:38:54.725Z,3.65
2023-05-04T02:43:56.276Z,3.03
2023-05-04T02:48:57.691Z,2.75
2023-05-04T02:53:58.956Z,2.97
2023-05-04T02:59:00.583Z,2.78
2023-05-04T03:04:02.109Z,3.35
2023-05-04T03:09:04.688Z,3.08
2023-05-04T03:14:06.692Z,2.60
2023-05-04T03:19:07.998Z,2.90
2023-05-04T03:24:09.564Z,3.03
2023-05-04T03:29:10.917Z,2.72
2023-05-04T03:34:14.659Z,3.03
2023-05-04T03:39:17.790Z,3.20
2023-05-04T03:44:19.574Z,2.92
2023-05-04T03:49:21.171Z,3.30
2023-05-04T03:54:22.558Z,2.78
2023-05-04T03:59:23.836Z,3.33
2023-05-04T04:04:25.259Z,3.80
2023-05-04T04:09:26.673Z,2.97
2023-05-04T04:14:28.177Z,3.25
2023-05-04T04:19:29.565Z,3.22
2023-05-04T04:24:31.740Z,2.90
2023-05-04T04:29:35.410Z,3.40
2023-05-04T04:34:36.968Z,3.47
2023-05-04T04:39:39.138Z,3.67
2023-05-04T04:44:40.867Z,3.08
2023-05-04T04:49:43.069Z,3.40
2023-05-04T04:54:45.217Z,3.10
2023-05-04T04:59:47.693Z,3.72
2023-05-04T05:04:49.402Z,3.30
2023-05-04T05:09:51.668Z,3.40
2023-05-04T05:14:52.946Z,3.15
2023-05-04T05:19:54.240Z,3.45
2023-05-04T05:24:55.548Z,3.58
2023-05-04T05:29:57.299Z,2.78
2023-05-04T05:34:58.819Z,3.85
2023-05-04T05:40:00.171Z,3.60
2023-05-04T05:45:04.651Z,3.60
2023-05-04T05:55:08.606Z,3.88
2023-05-04T06:00:10.584Z,3.80
2023-05-04T06:05:12.918Z,3.65
2023-05-04T06:10:14.264Z,3.50
2023-05-04T06:15:15.653Z,3.40
2023-05-04T06:20:17.081Z,4.10
2023-05-04T06:25:18.674Z,4.45
2023-05-04T06:30:24.085Z,3.45
2023-05-04T06:35:25.698Z,3.50
2023-05-04T06:40:27.377Z,3.55
2023-05-04T06:45:29.341Z,3.65
2023-05-04T06:50:31.519Z,3.67
2023-05-04T06:55:32.965Z,4.93
2023-05-04T07:00:35.060Z,4.80
2023-05-04T07:05:39.352Z,4.03
2023-05-04T07:15:42.959Z,3.38
2023-05-04T07:20:44.376Z,3.33
2023-05-04T07:25:46.204Z,3.63
2023-05-04T07:30:47.621Z,3.58
2023-05-04T07:35:48.976Z,4.00
2023-05-04T07:40:52.683Z,4.30
2023-05-04T07:45:54.243Z,4.97
2023-05-04T07:50:55.611Z,4.47
2023-05-04T07:56:00.985Z,4.28
2023-05-04T08:01:02.626Z,4.82
2023-05-04T08:06:04.070Z,4.68
2023-05-04T08:11:19.081Z,4.65
2023-05-04T08:16:22.256Z,4.68
2023-05-04T08:21:23.678Z,4.53
2023-05-04T08:26:25.034Z,4.22
2023-05-04T08:31:27.095Z,4.43
2023-05-04T08:36:28.519Z,4.60
2023-05-04T08:41:30.550Z,5.30
2023-05-04T08:46:32.671Z,4.72
2023-05-04T08:51:36.968Z,4.38
2023-05-04T08:56:40.202Z,4.88
2023-05-04T09:01:41.732Z,4.70
2023-05-04T09:06:43.258Z,5.45
2023-05-04T09:11:44.771Z,4.50
2023-05-04T09:16:46.376Z,4.53
2023-05-04T09:21:49.549Z,4.25
2023-05-04T09:26:51.519Z,4.50
2023-05-04T09:31:53.174Z,3.92
2023-05-04T09:37:02.352Z,4.47
2023-05-04T09:42:05.770Z,4.20
2023-05-04T09:52:08.674Z,3.92
2023-05-04T09:57:13.196Z,3.63
2023-05-04T10:02:22.638Z,4.07
2023-05-04T10:07:25.019Z,4.50
2023-05-04T10:12:26.575Z,4.07
2023-05-04T10:17:47.398Z,3.60
2023-05-04T10:23:34.522Z,3.60
2023-05-04T10:28:54.958Z,3.50
2023-05-04T10:33:56.978Z,3.35
2023-05-04T10:38:58.454Z,2.70
2023-05-04T10:44:04.468Z,2.58
2023-05-04T10:49:16.117Z,2.70
2023-05-04T10:54:21.284Z,3.08
2023-05-04T10:59:22.902Z,2.42
2023-05-04T11:04:24.434Z,2.13
2023-05-04T11:09:29.139Z,2.13
2023-05-04T11:14:31.436Z,2.72
2023-05-04T11:19:36.200Z,1.90
2023-05-04T11:24:48.545Z,2.20
2023-05-04T11:29:57.745Z,1.95
2023-05-04T11:34:59.149Z,2.33
2023-05-04T11:40:00.516Z,2.50
2023-05-04T11:45:02.732Z,2.33
2023-05-04T11:50:06.443Z,2.00
2023-05-04T11:55:13.241Z,2.08
2023-05-04T12:00:14.972Z,1.85
2023-05-04T12:05:16.921Z,2.20
2023-05-04T12:10:29.289Z,1.98
2023-05-04T12:15:32.395Z,2.05
2023-05-04T12:20:34.672Z,2.33
2023-05-04T12:25:44.179Z,2.30
2023-05-04T12:30:53.390Z,1.98
2023-05-04T12:35:55.087Z,1.92
2023-05-04T12:40:59.013Z,2.50
2023-05-04T12:46:00.664Z,1.90
2023-05-04T12:51:04.228Z,2.13
2023-05-04T12:56:06.817Z,2.30
2023-05-04T13:01:08.894Z,2.33
2023-05-04T13:06:10.574Z,1.95
2023-05-04T13:11:11.828Z,2.47
2023-05-04T13:16:13.392Z,2.42
2023-05-04T13:21:14.781Z,2.27
2023-05-04T13:26:16.362Z,2.35
2023-05-04T13:31:17.667Z,2.63
2023-05-04T13:36:19.052Z,2.30
2023-05-04T13:41:21.545Z,2.33
2023-05-04T13:46:23.017Z,2.33
2023-05-04T13:51:24.527Z,2.55
2023-05-04T13:56:25.826Z,2.55
2023-05-04T14:01:27.202Z,2.30
2023-05-04T14:06:29.633Z,2.13
2023-05-04T14:11:31.628Z,4.15
2023-05-04T14:16:34.041Z,3.00
2023-05-04T14:21:36.873Z,2.47
2023-05-04T14:26:38.408Z,2.53
2023-05-04T14:31:39.767Z,2.22
2023-05-04T14:36:41.249Z,2.55
2023-05-04T14:41:42.602Z,2.20
2023-05-04T14:46:44.233Z,2.50
2023-05-04T14:51:45.553Z,2.10
2023-05-04T14:56:47.460Z,5.57
2023-05-04T15:01:48.851Z,2.17
2023-05-04T15:06:50.218Z,2.03
2023-05-04T15:11:51.613Z,2.20
2023-05-04T15:16:53.180Z,1.90
2023-05-04T15:21:54.658Z,1.60
2023-05-04T15:26:56.342Z,2.30
2023-05-04T15:31:57.760Z,1.92
2023-05-04T15:36:59.125Z,2.10
2023-05-04T15:42:01.285Z,3.33
2023-05-04T15:47:05.339Z,1.87
2023-05-04T15:52:07.571Z,2.10
2023-05-04T15:57:08.874Z,2.23
2023-05-04T16:02:10.222Z,1.83
2023-05-04T16:07:11.597Z,2.05
2023-05-04T16:12:13.050Z,2.17
2023-05-04T16:17:14.466Z,1.95
2023-05-04T16:22:15.823Z,1.80
2023-05-04T16:27:17.151Z,1.80
2023-05-04T16:32:18.937Z,2.35
2023-05-04T16:37:20.311Z,2.08
2023-05-04T16:42:21.855Z,1.83
2023-05-04T16:47:23.271Z,1.80
2023-05-04T16:52:24.682Z,1.88
2023-05-04T16:57:27.009Z,1.75
2023-05-04T17:02:28.408Z,1.87
2023-05-04T17:07:29.715Z,1.95
2023-05-04T17:12:30.997Z,2.03
2023-05-04T17:17:32.378Z,1.73
2023-05-04T17:22:33.724Z,1.88
2023-05-04T17:27:35.168Z,2.00
2023-05-04T17:32:37.599Z,2.03
2023-05-04T17:37:39.069Z,2.40
2023-05-04T17:42:40.417Z,2.22
2023-05-04T17:47:43.717Z,1.67
2023-05-04T17:57:46.666Z,2.00
2023-05-04T18:02:48.210Z,1.88
2023-05-04T18:07:49.595Z,1.67
2023-05-04T18:12:50.947Z,1.70
2023-05-04T18:17:52.700Z,1.80
2023-05-04T18:22:54.000Z,1.90
2023-05-04T18:27:55.502Z,2.30
2023-05-04T18:32:56.942Z,2.15
2023-05-04T18:37:58.269Z,2.15
2023-05-04T18:42:59.612Z,2.63
2023-05-04T18:48:01.106Z,2.00
2023-05-04T18:53:02.559Z,2.22
2023-05-04T18:58:03.865Z,2.20
2023-05-04T19:03:05.160Z,1.98
2023-05-04T19:08:07.078Z,2.35
2023-05-04T19:13:08.716Z,2.30
2023-05-04T19:18:10.380Z,2.17
2023-05-04T19:23:12.035Z,1.98
2023-05-04T19:28:13.321Z,1.88
2023-05-04T19:33:15.020Z,2.13
2023-05-04T19:38:16.355Z,2.25
2023-05-04T19:43:17.716Z,2.17
2023-05-04T19:48:21.336Z,2.70
2023-05-04T19:53:22.652Z,2.95
2023-05-04T19:58:28.945Z,2.60
2023-05-04T20:03:30.445Z,2.72
2023-05-04T20:08:31.956Z,2.85
2023-05-04T20:13:33.283Z,2.88
2023-05-04T20:18:34.676Z,2.80
2023-05-04T20:23:35.958Z,2.85
2023-05-04T20:28:37.806Z,3.22
2023-05-04T20:33:39.109Z,2.58
2023-05-04T20:38:40.857Z,2.45
2023-05-04T20:43:42.221Z,2.83
2023-05-04T20:48:43.536Z,3.33
2023-05-04T20:53:45.287Z,2.47
2023-05-04T20:58:46.675Z,3.10
2023-05-04T21:03:48.131Z,2.95
2023-05-04T21:08:49.709Z,2.40
2023-05-04T21:13:50.974Z,2.88
2023-05-04T21:18:52.352Z,3.00
2023-05-04T21:23:53.649Z,2.83
2023-05-04T21:28:56.018Z,3.35
2023-05-04T21:33:57.318Z,4.28
2023-05-04T21:38:59.104Z,3.13
2023-05-04T21:44:00.422Z,3.58
2023-05-04T21:49:01.709Z,3.30
2023-05-04T21:54:03.189Z,2.83
2023-05-04T21:59:04.484Z,2.85
2023-05-04T22:04:07.002Z,3.33
2023-05-04T22:09:08.933Z,3.03
2023-05-04T22:14:10.546Z,3.20
2023-05-04T22:19:11.905Z,3.00
2023-05-04T22:24:13.200Z,3.10
2023-05-04T22:29:14.548Z,3.00
2023-05-04T22:34:15.972Z,2.83
2023-05-04T22:39:17.396Z,3.05
2023-05-04T22:44:18.971Z,2.72
2023-05-04T22:49:20.412Z,2.58
2023-05-04T22:54:22.016Z,2.60
2023-05-04T22:59:23.472Z,2.38
2023-05-04T23:04:24.719Z,2.92
2023-05-04T23:09:26.025Z,2.72
2023-05-04T23:14:27.406Z,2.67
2023-05-04T23:19:29.925Z,3.80
2023-05-04T23:24:31.166Z,2.65
2023-05-04T23:29:32.476Z,3.05
2023-05-04T23:34:33.808Z,2.80
2023-05-04T23:39:35.624Z,3.05
2023-05-04T23:44:36.895Z,2.40
2023-05-04T23:49:38.171Z,2.83
2023-05-04T23:54:39.471Z,3.05
2023-05-04T23:59:41.882Z,3.20
